Flight Track Log - Related Links

Times and Time Zones

All times are in EDT time to prevent confusion due to time zone crossing. See the EJA831 flight status page for this flight to view local times or setup timezone preferences in your user account.

Time Position Orientation Groundspeed Altitude Reporting Facility
EDT Latitude Longitude Course Direction KTS MPH feet Rate Location/Type
Thu 06:28:54 PM 38.3528 -81.6286 82° East 173 199 3,500  Level Indianapolis Center
Thu 06:29:56 PM 38.3169 -81.5967 145° Southeast 233 268 6,200 2,758 Climbing Indianapolis Center
Thu 06:30:58 PM 38.3369 -81.5100 74° East 258 297 9,200 1,824 Climbing Indianapolis Center
Thu 06:32:01 PM 38.3733 -81.4300 60° Northeast 263 303 10,000 1,248 Climbing Indianapolis Center
Thu 06:33:03 PM 38.3908 -81.3217 78° East 311 358 11,800 2,516 Climbing Indianapolis Center
Thu 06:34:00 PM 38.3803 -81.3272 82° East  Level FlightAware Approximate
Thu 06:34:05 PM 38.4017 -81.1886 84° East 316 364 15,200  Level Indianapolis Center
Thu 06:35:07 PM 38.4117 -81.0786 83° East 315 362 17,700 1,355 Climbing Indianapolis Center
Thu 06:36:09 PM 38.4214 -80.9528 84° East 348 400 18,000 145 Climbing Indianapolis Center
Thu 06:37:11 PM 38.4336 -80.8183 83° East 378 435 18,000  Level Indianapolis Center
Thu 06:38:13 PM 38.4444 -80.6864 84° East 376 433 18,000  Level Indianapolis Center
Thu 06:39:15 PM 38.4567 -80.5297 84° East 372 428 18,000 -145 Level Indianapolis Center
Thu 06:40:17 PM 38.4664 -80.4122 84° East 372 428 17,700 -387 Descending Indianapolis Center
Thu 06:40:48 PM 38.4733 -80.3417 83° East 368 423 17,400 -400 Descending Washington Center
Thu 06:41:47 PM 38.4847 -80.2150 83° East 363 418 17,100 -151 Descending Washington Center
Thu 06:42:47 PM 38.4911 -80.1011 86° East 363 418 17,100 -50 Level Washington Center
Thu 06:43:48 PM 38.5042 -79.9694 83° East 363 418 17,000 -50 Descending Washington Center
Thu 06:44:46 PM 38.5131 -79.8400 85° East 363 418 17,000  Level Washington Center
Thu 06:45:47 PM 38.5217 -79.7131 85° East 363 418 17,000  Level Washington Center
Thu 06:46:48 PM 38.5328 -79.5728 84° East 363 418 17,000  Level Washington Center
Thu 06:47:48 PM 38.5408 -79.4458 85° East 363 418 17,000  Level Washington Center
Thu 06:48:46 PM 38.5511 -79.3192 84° East 363 418 17,000  Level Washington Center
Thu 06:49:47 PM 38.5614 -79.1867 84° East 363 418 17,000  Level Washington Center
Thu 06:50:48 PM 38.5839 -79.0631 77° East 363 418 17,000  Level Washington Center
Thu 06:51:48 PM 38.6228 -78.9481 67° East 358 412 17,000 50 Level Washington Center
Thu 06:52:47 PM 38.6592 -78.8325 68° East 352 405 17,100 -504 Climbing Washington Center
Thu 06:53:47 PM 38.6978 -78.7119 68° East 352 405 16,000 -1,450 Descending Washington Center
Thu 06:54:47 PM 38.7342 -78.5964 68° East 352 405 14,200 -1,785 Descending Washington Center
Thu 06:55:48 PM 38.7703 -78.4833 68° East 352 405 12,400 -1,537 Descending Washington Center
Thu 06:56:48 PM 38.8019 -78.3781 69° East 341 392 11,100 -814 Descending Washington Center
Thu 06:57:46 PM 38.8356 -78.2700 68° East 328 377 10,800 -1,119 Descending Washington Center
Thu 06:58:46 PM 38.8628 -78.1722 70° East 312 359 8,900 -1,850 Descending Washington Center
Thu 06:59:46 PM 38.8856 -78.0797 72° East 283 326 7,100 -1,388 Descending Washington Center
Thu 07:00:47 PM 38.9083 -77.9872 72° East 272 313 6,100 -496 Descending Washington Center
Thu 07:01:47 PM 38.9308 -77.8972 72° East 262 302 6,100  Level Washington Center
Thu 07:02:48 PM 38.9533 -77.8097 72° East 257 296 6,100  Level Washington Center
Thu 07:03:48 PM 38.9614 -77.7192 83° East 257 296 6,100  Level Washington Center
Thu 07:05:19 PM 38.9833 -77.6000 77° East 264 304 6,100 -437 Level Potomac TRACON
Thu 07:06:19 PM 39.0500 -77.5667 21° North 241 277 5,000 -1,150 Descending Potomac TRACON
Thu 07:07:19 PM 39.1000 -77.5333 27° Northeast 209 241 3,800 -1,050 Descending Potomac TRACON
Thu 07:08:19 PM 39.0667 -77.4833 131° Southeast 182 209 2,900 -1,050 Descending Potomac TRACON
Thu 07:09:19 PM 39.0167 -77.4667 165° South 149 171 1,700 -1,100 Descending Potomac TRACON
Thu 07:10:19 PM 38.9833 -77.4667 180° South 124 143 700 -1,000 Descending Potomac TRACON
Thu 07:12:00 PM 38.9474 -77.4599 83° East  Level Estimated
Thu 07:19:00 PM 38.9474 -77.4599 83° East  Level Estimated
Thu 07:20:00 PM 38.9474 -77.4599 83° East  Level Estimated
Thu 07:21:00 PM 38.9474 -77.4599 83° East  Level Estimated

Login

Don't have an account? Register now (free) for customized features, flight alerts, and more!